createdAt,value
2018-04-06T00:01:45.524Z,13.03
2018-04-06T00:04:14.085Z,13.10
2018-04-06T00:06:42.481Z,14.43
2018-04-06T00:09:10.655Z,13.27
2018-04-06T00:11:39.040Z,15.00
2018-04-06T00:14:07.310Z,12.87
2018-04-06T00:16:35.690Z,13.80
2018-04-06T00:19:03.961Z,13.27
2018-04-06T00:21:32.135Z,13.43
2018-04-06T00:24:00.166Z,13.77
2018-04-06T00:26:28.279Z,14.97
2018-04-06T00:28:56.819Z,14.67
2018-04-06T00:31:25.109Z,12.63
2018-04-06T00:33:53.211Z,15.23
2018-04-06T00:36:21.574Z,15.60
2018-04-06T00:38:49.849Z,15.90
2018-04-06T00:41:17.835Z,14.40
2018-04-06T00:43:46.928Z,14.20
2018-04-06T00:46:15.476Z,14.70
2018-04-06T00:48:43.582Z,15.57
2018-04-06T00:51:11.549Z,15.27
2018-04-06T00:53:48.426Z,15.87
2018-04-06T00:56:16.564Z,16.47
2018-04-06T00:58:44.766Z,15.43
2018-04-06T01:01:13.155Z,15.93
2018-04-06T01:03:41.180Z,17.77
2018-04-06T01:06:09.263Z,15.93
2018-04-06T01:08:37.265Z,15.97
2018-04-06T01:11:05.530Z,16.40
2018-04-06T01:13:34.226Z,15.47
2018-04-06T01:16:03.664Z,14.30
2018-04-06T01:18:32.519Z,14.57
2018-04-06T01:21:00.550Z,15.10
2018-04-06T01:23:28.449Z,14.83
2018-04-06T01:25:56.833Z,16.57
2018-04-06T01:28:24.899Z,16.50
2018-04-06T01:30:53.075Z,16.80
2018-04-06T01:33:21.250Z,17.40
2018-04-06T01:35:49.404Z,15.90
2018-04-06T01:38:17.590Z,16.67
2018-04-06T01:40:46.083Z,17.00
2018-04-06T01:43:14.245Z,16.73
2018-04-06T01:45:42.726Z,16.63
2018-04-06T01:48:10.768Z,18.17
2018-04-06T01:50:38.669Z,16.70
2018-04-06T01:53:06.836Z,17.70
2018-04-06T01:55:35.215Z,16.03
2018-04-06T01:58:03.363Z,18.10
2018-04-06T02:00:31.869Z,16.83
2018-04-06T02:02:59.940Z,16.80
2018-04-06T02:05:28.631Z,16.43
2018-04-06T02:07:56.776Z,14.43
2018-04-06T02:10:25.079Z,16.63
2018-04-06T02:12:53.158Z,16.20
2018-04-06T02:15:21.015Z,13.73
2018-04-06T02:17:49.091Z,12.37
2018-04-06T02:20:17.360Z,10.70
2018-04-06T02:22:45.430Z,9.87
2018-04-06T02:25:14.120Z,9.57
2018-04-06T02:27:42.395Z,10.53
2018-04-06T02:30:10.461Z,10.23
2018-04-06T02:32:40.075Z,9.60
2018-04-06T02:35:08.241Z,11.10
2018-04-06T02:37:36.105Z,9.03
2018-04-06T02:40:04.286Z,9.90
2018-04-06T02:42:32.526Z,9.80
2018-04-06T02:45:00.425Z,8.93
2018-04-06T02:47:28.609Z,9.80
2018-04-06T02:49:57.444Z,9.80
2018-04-06T02:52:25.557Z,10.37
2018-04-06T02:54:53.528Z,9.57
2018-04-06T02:57:21.499Z,9.70
2018-04-06T02:59:49.755Z,9.97
2018-04-06T03:02:18.050Z,9.73
2018-04-06T03:04:46.118Z,10.90
2018-04-06T03:07:14.290Z,8.87
2018-04-06T03:09:42.639Z,9.13
2018-04-06T03:12:11.745Z,9.40
2018-04-06T03:14:40.146Z,8.73
2018-04-06T03:17:08.185Z,9.40
2018-04-06T03:19:36.180Z,8.67
2018-04-06T03:22:04.561Z,10.63
2018-04-06T03:24:32.733Z,9.57
2018-04-06T03:27:00.805Z,9.77
2018-04-06T03:29:28.981Z,10.50
2018-04-06T03:31:57.320Z,11.07
2018-04-06T03:34:25.630Z,9.40
2018-04-06T03:36:53.496Z,8.93
2018-04-06T03:39:21.632Z,9.80
2018-04-06T03:41:50.047Z,11.67
2018-04-06T03:44:18.402Z,9.73
2018-04-06T03:46:46.595Z,9.60
2018-04-06T03:49:14.875Z,10.87
2018-04-06T03:51:43.115Z,11.40
2018-04-06T03:54:12.315Z,10.10
2018-04-06T03:56:40.423Z,9.83
2018-04-06T03:59:08.387Z,9.60
2018-04-06T04:01:36.556Z,10.73
2018-04-06T04:04:04.708Z,10.60
2018-04-06T04:06:32.804Z,11.13
2018-04-06T04:09:00.974Z,10.07
2018-04-06T04:11:29.151Z,10.30
2018-04-06T04:13:57.559Z,10.70
2018-04-06T04:16:26.526Z,10.73
2018-04-06T04:18:54.590Z,12.47
2018-04-06T04:21:22.770Z,13.60
2018-04-06T04:23:50.810Z,13.03
2018-04-06T04:26:18.813Z,12.27
2018-04-06T04:28:46.878Z,12.60
2018-04-06T04:31:14.952Z,10.93
2018-04-06T04:33:43.090Z,13.03
2018-04-06T04:36:11.306Z,10.77
2018-04-06T04:38:39.675Z,12.30
2018-04-06T04:41:07.639Z,12.57
2018-04-06T04:43:36.532Z,12.67
2018-04-06T04:46:04.565Z,12.83
2018-04-06T04:48:32.672Z,12.70
2018-04-06T04:51:00.848Z,12.10
2018-04-06T04:53:29.020Z,12.93
2018-04-06T04:55:57.150Z,13.83
2018-04-06T04:58:25.508Z,15.30
2018-04-06T05:00:54.765Z,13.43
2018-04-06T05:03:23.761Z,12.43
2018-04-06T05:05:51.865Z,12.43
2018-04-06T05:08:21.013Z,11.50
2018-04-06T05:10:49.213Z,12.80
2018-04-06T05:13:17.471Z,12.17
2018-04-06T05:15:46.030Z,11.97
2018-04-06T05:18:14.242Z,11.80
2018-04-06T05:20:42.710Z,11.13
2018-04-06T05:23:10.746Z,10.30
2018-04-06T05:25:38.861Z,11.60
2018-04-06T05:28:06.894Z,12.00
2018-04-06T05:30:34.975Z,11.77
2018-04-06T05:33:03.283Z,10.90
2018-04-06T05:35:31.550Z,13.90
2018-04-06T05:37:59.622Z,10.73
2018-04-06T05:40:28.390Z,11.67
2018-04-06T05:42:57.092Z,11.73
2018-04-06T05:45:25.583Z,11.53
2018-04-06T05:47:53.910Z,12.47
2018-04-06T05:50:21.925Z,11.33
2018-04-06T05:52:50.097Z,10.47
2018-04-06T05:55:18.453Z,12.40
2018-04-06T05:57:46.549Z,10.30
2018-04-06T06:00:14.715Z,9.90
2018-04-06T06:02:43.152Z,12.80
2018-04-06T06:05:11.731Z,11.73
2018-04-06T06:07:40.512Z,10.20
2018-04-06T06:10:08.532Z,15.53
2018-04-06T06:12:36.710Z,10.70
2018-04-06T06:15:04.754Z,12.10
2018-04-06T06:17:32.645Z,12.83
2018-04-06T06:20:01.615Z,14.80
2018-04-06T06:22:29.470Z,12.30
2018-04-06T06:24:57.369Z,13.13
2018-04-06T06:27:26.540Z,13.43
2018-04-06T06:29:54.556Z,12.53
2018-04-06T06:32:23.890Z,12.20
2018-04-06T06:34:52.011Z,15.00
2018-04-06T06:37:19.883Z,13.40
2018-04-06T06:39:48.010Z,13.97
2018-04-06T06:42:16.120Z,12.77
2018-04-06T06:44:44.198Z,12.67
2018-04-06T06:47:12.360Z,12.83
2018-04-06T06:49:40.337Z,12.87
2018-04-06T06:52:08.504Z,13.20
2018-04-06T06:54:36.574Z,13.70
2018-04-06T06:57:04.824Z,13.50
2018-04-06T06:59:33.131Z,15.43
2018-04-06T07:02:01.300Z,13.83
2018-04-06T07:04:29.276Z,14.23
2018-04-06T07:06:57.751Z,15.93
2018-04-06T07:09:25.791Z,13.63
2018-04-06T07:11:54.095Z,13.00
2018-04-06T07:14:22.377Z,13.53
2018-04-06T07:16:50.508Z,14.10
2018-04-06T07:19:18.422Z,13.50
2018-04-06T07:21:46.439Z,13.10
2018-04-06T07:24:14.755Z,14.57
2018-04-06T07:26:42.843Z,14.80
2018-04-06T07:29:11.527Z,14.07
2018-04-06T07:31:40.065Z,13.60
2018-04-06T07:34:08.278Z,12.97
2018-04-06T07:36:36.441Z,15.00
2018-04-06T07:39:04.586Z,13.37
2018-04-06T07:41:32.589Z,14.27
2018-04-06T07:44:00.763Z,13.77
2018-04-06T07:46:28.831Z,13.93
2018-04-06T07:48:56.907Z,14.77
2018-04-06T07:51:25.177Z,14.63
2018-04-06T07:53:53.254Z,15.47
2018-04-06T07:56:22.345Z,13.67
2018-04-06T07:58:50.688Z,14.93
2018-04-06T08:01:18.905Z,13.93
2018-04-06T08:03:46.721Z,18.13
2018-04-06T08:06:14.901Z,13.10
2018-04-06T08:08:43.311Z,13.30
2018-04-06T08:11:11.493Z,13.50
2018-04-06T08:13:39.687Z,14.20
2018-04-06T08:16:08.448Z,13.30
2018-04-06T08:18:36.928Z,14.20
2018-04-06T08:21:05.484Z,14.10
2018-04-06T08:23:33.377Z,14.60
2018-04-06T08:26:01.559Z,13.37
2018-04-06T08:28:29.628Z,13.27
2018-04-06T08:30:57.489Z,13.27
2018-04-06T08:33:26.172Z,12.40
2018-04-06T08:35:54.341Z,12.70
2018-04-06T08:38:22.522Z,14.97
2018-04-06T08:40:50.386Z,15.10
2018-04-06T08:43:18.557Z,14.60
2018-04-06T08:45:46.807Z,13.10
2018-04-06T08:48:14.907Z,12.60
2018-04-06T08:50:43.252Z,21.27
2018-04-06T08:53:11.462Z,13.40
2018-04-06T08:55:39.526Z,13.93
2018-04-06T08:58:07.396Z,12.93
2018-04-06T09:00:35.647Z,13.20
2018-04-06T09:03:03.953Z,13.40
2018-04-06T09:05:32.122Z,13.13
2018-04-06T09:08:00.378Z,13.20
2018-04-06T09:10:28.671Z,14.37
2018-04-06T09:12:56.743Z,12.83
2018-04-06T09:15:24.997Z,11.60
2018-04-06T09:17:53.102Z,11.80
2018-04-06T09:20:20.952Z,11.80
2018-04-06T09:22:49.127Z,11.07
2018-04-06T09:25:17.268Z,10.27
2018-04-06T09:27:45.627Z,11.10
2018-04-06T09:30:13.860Z,9.93
2018-04-06T09:32:41.914Z,10.37
2018-04-06T09:35:10.201Z,12.10
2018-04-06T09:37:38.167Z,10.33
2018-04-06T09:40:06.366Z,9.93
2018-04-06T09:42:35.436Z,13.13
2018-04-06T09:45:03.620Z,10.60
2018-04-06T09:47:31.687Z,11.20
2018-04-06T09:49:59.551Z,9.60
2018-04-06T09:52:27.622Z,9.90
2018-04-06T09:54:55.792Z,10.00
2018-04-06T09:57:23.890Z,10.97
2018-04-06T09:59:52.752Z,10.90
2018-04-06T10:02:20.933Z,10.70
2018-04-06T10:04:48.897Z,9.67
2018-04-06T10:07:17.148Z,9.90
2018-04-06T10:09:45.242Z,9.07
2018-04-06T10:12:13.526Z,9.60
2018-04-06T10:14:42.512Z,10.77
2018-04-06T10:17:10.992Z,9.83
2018-04-06T10:19:39.061Z,10.40
2018-04-06T10:22:07.442Z,10.73
2018-04-06T10:24:35.512Z,10.53
2018-04-06T10:27:03.887Z,10.87
2018-04-06T10:29:32.266Z,9.97
2018-04-06T10:32:00.408Z,10.00
2018-04-06T10:34:28.921Z,10.43
2018-04-06T10:36:56.884Z,21.67
2018-04-06T10:39:25.140Z,10.90
2018-04-06T10:41:53.541Z,10.80
2018-04-06T10:44:21.695Z,10.10
2018-04-06T10:46:49.951Z,11.50
2018-04-06T10:49:18.267Z,10.90
2018-04-06T10:51:47.311Z,10.60
2018-04-06T10:54:15.332Z,9.97
2018-04-06T10:56:43.922Z,11.50
2018-04-06T10:59:12.397Z,10.33
2018-04-06T11:01:40.361Z,9.93
2018-04-06T11:04:08.650Z,10.30
2018-04-06T11:06:36.716Z,10.33
2018-04-06T11:09:06.409Z,9.63
2018-04-06T11:11:34.591Z,10.50
2018-04-06T11:14:02.564Z,10.57
2018-04-06T11:16:30.728Z,10.47
2018-04-06T11:18:59.238Z,10.50
2018-04-06T11:21:28.211Z,10.67
2018-04-06T11:23:56.282Z,10.00
2018-04-06T11:26:24.458Z,10.20
2018-04-06T11:28:52.440Z,25.33
2018-04-06T11:31:21.626Z,9.77
2018-04-06T11:33:51.037Z,9.17
2018-04-06T11:36:19.187Z,9.43
2018-04-06T11:38:47.580Z,11.20
2018-04-06T11:41:16.149Z,10.50
2018-04-06T11:43:44.440Z,10.23
2018-04-06T11:46:12.692Z,11.50
2018-04-06T11:48:40.887Z,10.47
2018-04-06T11:51:11.206Z,9.30
2018-04-06T11:53:39.382Z,9.30
2018-04-06T11:56:07.230Z,9.17
2018-04-06T11:58:35.626Z,10.27
2018-04-06T12:01:03.797Z,10.83
2018-04-06T12:03:31.817Z,10.23
2018-04-06T12:06:00.101Z,9.73
2018-04-06T12:08:28.216Z,10.10
2018-04-06T12:10:56.387Z,9.97
2018-04-06T12:13:24.461Z,12.13
2018-04-06T12:15:52.631Z,10.10
2018-04-06T12:18:20.807Z,9.80
2018-04-06T12:20:48.981Z,10.10
2018-04-06T12:23:17.359Z,9.33
2018-04-06T12:25:45.531Z,9.77
2018-04-06T12:28:13.706Z,10.83
2018-04-06T12:30:41.784Z,10.10
2018-04-06T12:33:10.107Z,11.30
2018-04-06T12:35:39.147Z,10.27
2018-04-06T12:38:07.250Z,10.23
2018-04-06T12:40:36.447Z,10.27
2018-04-06T12:43:05.706Z,10.13
2018-04-06T12:45:33.585Z,9.73
2018-04-06T12:48:01.958Z,9.30
2018-04-06T12:50:29.934Z,9.40
2018-04-06T12:52:58.304Z,10.07
2018-04-06T12:55:26.770Z,9.20
2018-04-06T12:57:55.044Z,9.87
2018-04-06T13:00:23.719Z,9.07
2018-04-06T13:02:52.108Z,9.10
2018-04-06T13:05:20.650Z,9.00
2018-04-06T13:07:49.008Z,9.30
2018-04-06T13:10:17.741Z,8.70
2018-04-06T13:12:45.850Z,9.50
2018-04-06T13:15:14.098Z,9.20
2018-04-06T13:17:42.499Z,10.27
2018-04-06T13:20:10.683Z,9.80
2018-04-06T13:22:38.949Z,10.37
2018-04-06T13:25:06.985Z,9.50
2018-04-06T13:27:35.450Z,9.77
2018-04-06T13:30:03.481Z,11.30
2018-04-06T13:32:31.677Z,12.00
2018-04-06T13:35:00.846Z,11.47
2018-04-06T13:37:28.804Z,12.80
2018-04-06T13:39:57.084Z,10.57
2018-04-06T13:42:26.485Z,10.00
2018-04-06T13:44:54.760Z,12.47
2018-04-06T13:47:22.843Z,11.53
2018-04-06T13:49:51.005Z,11.13
2018-04-06T13:52:19.179Z,12.23
2018-04-06T13:54:47.251Z,11.97
2018-04-06T13:57:15.614Z,11.57
2018-04-06T13:59:43.686Z,11.23
2018-04-06T14:02:11.770Z,9.93
2018-04-06T14:04:40.347Z,10.67
2018-04-06T14:07:08.840Z,9.50
2018-04-06T14:09:36.917Z,9.63
2018-04-06T14:12:05.055Z,10.63
2018-04-06T14:14:33.368Z,8.97
2018-04-06T14:17:01.924Z,9.53
2018-04-06T14:19:30.315Z,9.63
2018-04-06T14:21:58.490Z,9.50
2018-04-06T14:24:26.654Z,10.00
2018-04-06T14:26:54.835Z,10.80
2018-04-06T14:29:23.215Z,10.57
2018-04-06T14:31:51.496Z,9.30
2018-04-06T14:34:19.772Z,9.60
2018-04-06T14:36:48.048Z,9.47
2018-04-06T14:39:16.336Z,9.60
2018-04-06T14:41:44.666Z,10.07
2018-04-06T14:44:12.894Z,10.97
2018-04-06T14:46:41.730Z,10.87
2018-04-06T14:49:09.936Z,10.87
2018-04-06T14:51:38.005Z,9.17
2018-04-06T14:54:06.092Z,8.73
2018-04-06T14:56:34.045Z,9.03
2018-04-06T14:59:02.225Z,10.27
2018-04-06T15:01:30.508Z,9.57
2018-04-06T15:03:58.570Z,10.30
2018-04-06T15:06:26.705Z,9.80
2018-04-06T15:08:55.119Z,10.63
2018-04-06T15:11:23.155Z,11.00
2018-04-06T15:13:51.055Z,10.03
2018-04-06T15:16:19.449Z,10.57
2018-04-06T15:18:47.406Z,11.20
2018-04-06T15:21:15.625Z,10.57
2018-04-06T15:23:43.855Z,10.00
2018-04-06T15:26:11.925Z,9.90
2018-04-06T15:28:40.097Z,10.70
2018-04-06T15:31:08.270Z,9.50
2018-04-06T15:33:36.340Z,9.43
2018-04-06T15:36:04.559Z,10.13
2018-04-06T15:38:32.698Z,10.23
2018-04-06T15:41:00.658Z,8.87
2018-04-06T15:43:28.842Z,9.50
2018-04-06T15:45:56.900Z,11.10
2018-04-06T15:48:25.479Z,9.87
2018-04-06T15:50:53.728Z,9.20
2018-04-06T15:53:21.826Z,10.13
2018-04-06T15:55:50.213Z,9.17
2018-04-06T15:58:18.072Z,9.67
2018-04-06T16:00:46.250Z,10.67
2018-04-06T16:03:14.634Z,9.53
2018-04-06T16:05:42.755Z,9.60
2018-04-06T16:08:11.051Z,10.37
2018-04-06T16:10:39.738Z,10.57
2018-04-06T16:13:07.830Z,11.73
2018-04-06T16:15:36.122Z,10.53
2018-04-06T16:18:04.075Z,9.47
2018-04-06T16:20:31.940Z,9.10
2018-04-06T16:23:00.215Z,9.80
2018-04-06T16:25:28.293Z,9.77
2018-04-06T16:27:56.534Z,11.00
2018-04-06T16:30:24.740Z,9.13
2018-04-06T16:32:52.705Z,9.43
2018-04-06T16:35:21.071Z,9.93
2018-04-06T16:37:49.054Z,10.13
2018-04-06T16:40:17.019Z,10.57
2018-04-06T16:42:44.990Z,8.77
2018-04-06T16:45:13.059Z,9.73
2018-04-06T16:47:41.466Z,9.20
2018-04-06T16:50:10.709Z,9.00
2018-04-06T16:52:38.915Z,9.87
2018-04-06T16:55:06.978Z,10.00
2018-04-06T16:57:35.333Z,9.50
2018-04-06T17:00:03.338Z,10.97
2018-04-06T17:02:31.399Z,11.50
2018-04-06T17:04:59.483Z,10.73
2018-04-06T17:07:29.154Z,10.57
2018-04-06T17:09:57.252Z,10.77
2018-04-06T17:12:25.126Z,10.07
2018-04-06T17:14:54.100Z,10.57
2018-04-06T17:17:22.164Z,9.63
2018-04-06T17:19:50.164Z,10.23
2018-04-06T17:22:18.322Z,10.67
2018-04-06T17:24:46.669Z,10.53
2018-04-06T17:27:14.975Z,11.27
2018-04-06T17:29:43.125Z,12.20
2018-04-06T17:32:11.594Z,11.47
2018-04-06T17:34:39.905Z,11.33
2018-04-06T17:37:08.171Z,11.50
2018-04-06T17:39:36.151Z,13.10
2018-04-06T17:42:04.330Z,15.47
2018-04-06T17:44:32.810Z,14.37
2018-04-06T17:47:01.086Z,20.90
2018-04-06T17:49:29.359Z,18.27
2018-04-06T17:51:57.530Z,12.60
2018-04-06T17:54:25.600Z,16.13
2018-04-06T17:56:53.880Z,13.03
2018-04-06T17:59:22.150Z,15.47
2018-04-06T18:01:50.430Z,23.00
2018-04-06T18:04:19.629Z,14.47
2018-04-06T18:06:47.770Z,18.47
2018-04-06T18:09:15.890Z,23.13
2018-04-06T18:11:44.850Z,21.90
2018-04-06T18:14:13.031Z,33.60
2018-04-06T18:16:41.209Z,29.70
2018-04-06T18:19:09.380Z,47.93
2018-04-06T18:21:37.451Z,77.93
2018-04-06T18:24:05.506Z,64.60
2018-04-06T18:26:33.700Z,60.13
2018-04-06T18:29:01.975Z,31.93
2018-04-06T18:31:30.144Z,27.73
2018-04-06T18:33:58.217Z,31.20
2018-04-06T18:36:26.396Z,30.27
2018-04-06T18:38:55.061Z,25.27
2018-04-06T18:41:23.315Z,33.70
2018-04-06T18:43:51.932Z,27.63
2018-04-06T18:46:20.530Z,29.33
2018-04-06T18:48:49.414Z,45.73
2018-04-06T18:51:17.579Z,31.33
2018-04-06T18:53:45.451Z,26.17
2018-04-06T18:56:13.415Z,48.27
2018-04-06T18:58:41.693Z,43.00
2018-04-06T19:01:09.665Z,42.10
2018-04-06T19:03:37.940Z,46.07
2018-04-06T19:06:05.995Z,50.20
2018-04-06T19:08:33.974Z,51.23
2018-04-06T19:11:02.358Z,68.50
2018-04-06T19:13:30.700Z,70.30
2018-04-06T19:15:59.295Z,68.10
2018-04-06T19:18:27.499Z,60.93
2018-04-06T19:20:55.898Z,72.67
2018-04-06T19:23:24.729Z,68.57
2018-04-06T19:25:53.336Z,61.50
2018-04-06T19:28:21.415Z,55.77
2018-04-06T19:30:49.380Z,59.00
2018-04-06T19:33:17.550Z,57.00
2018-04-06T19:35:45.725Z,63.43
2018-04-06T19:38:14.125Z,55.60
2018-04-06T19:40:43.269Z,48.50
2018-04-06T19:43:11.270Z,28.73
2018-04-06T19:45:39.621Z,66.57
2018-04-06T19:48:07.621Z,49.43
2018-04-06T19:50:35.590Z,68.83
2018-04-06T19:53:03.760Z,77.33
2018-04-06T19:55:32.018Z,67.23
2018-04-06T19:58:00.204Z,64.67
2018-04-06T20:00:28.385Z,69.00
2018-04-06T20:02:56.554Z,68.87
2018-04-06T20:05:24.800Z,65.70
2018-04-06T20:07:53.213Z,49.20
2018-04-06T20:10:21.251Z,44.67
2018-04-06T20:12:49.354Z,42.80
2018-04-06T20:15:17.835Z,47.77
2018-04-06T20:17:45.899Z,53.20
2018-04-06T20:20:14.151Z,44.50
2018-04-06T20:22:42.355Z,53.20
2018-04-06T20:25:10.525Z,57.93
2018-04-06T20:27:38.490Z,45.97
2018-04-06T20:30:06.546Z,49.23
2018-04-06T20:32:34.434Z,51.97
2018-04-06T20:35:02.761Z,54.93
2018-04-06T20:37:31.172Z,55.70
2018-04-06T20:39:59.443Z,48.47
2018-04-06T20:42:27.952Z,53.90
2018-04-06T20:44:56.020Z,59.80
2018-04-06T20:47:24.296Z,37.77
2018-04-06T20:49:52.460Z,47.70
2018-04-06T20:52:20.325Z,53.60
2018-04-06T20:54:48.205Z,65.70
2018-04-06T20:57:16.477Z,58.17
2018-04-06T20:59:44.539Z,49.90
2018-04-06T21:02:12.404Z,59.60
2018-04-06T21:04:40.691Z,47.07
2018-04-06T21:07:09.060Z,60.47
2018-04-06T21:09:37.410Z,49.20
2018-04-06T21:12:05.623Z,58.03
2018-04-06T21:14:33.482Z,61.30
2018-04-06T21:17:01.351Z,54.97
2018-04-06T21:19:30.193Z,56.93
2018-04-06T21:21:58.292Z,59.80
2018-04-06T21:24:26.656Z,54.13
2018-04-06T21:26:55.270Z,57.10
2018-04-06T21:29:23.243Z,61.47
2018-04-06T21:31:51.513Z,65.57
2018-04-06T21:34:19.585Z,68.00
2018-04-06T21:36:47.624Z,58.87
2018-04-06T21:39:15.631Z,62.23
2018-04-06T21:41:43.885Z,67.50
2018-04-06T21:44:11.970Z,70.17
2018-04-06T21:46:40.455Z,64.00
2018-04-06T21:49:08.420Z,57.70
2018-04-06T21:51:36.682Z,65.33
2018-04-06T21:54:04.870Z,65.50
2018-04-06T21:56:33.028Z,96.73
2018-04-06T21:59:01.110Z,78.63
2018-04-06T22:01:29.635Z,74.57
2018-04-06T22:03:58.379Z,83.23
2018-04-06T22:06:26.360Z,81.53
2018-04-06T22:08:54.609Z,79.43
2018-04-06T22:11:23.000Z,77.53
2018-04-06T22:13:51.385Z,72.93
2018-04-06T22:16:19.455Z,74.13
2018-04-06T22:18:47.420Z,70.93
2018-04-06T22:21:15.285Z,69.20
2018-04-06T22:23:43.154Z,69.70
2018-04-06T22:26:11.503Z,64.93
2018-04-06T22:28:40.125Z,68.47
2018-04-06T22:31:08.186Z,78.10
2018-04-06T22:33:36.358Z,76.70
2018-04-06T22:36:04.706Z,76.60
2018-04-06T22:38:32.806Z,69.47
2018-04-06T22:41:01.185Z,67.77
2018-04-06T22:43:29.460Z,77.13
2018-04-06T22:45:57.439Z,78.90
2018-04-06T22:48:25.611Z,75.63
2018-04-06T22:50:53.745Z,67.67
2018-04-06T22:53:21.954Z,76.83
2018-04-06T22:55:49.915Z,69.53
2018-04-06T22:58:18.095Z,73.77
2018-04-06T23:00:46.270Z,64.37
2018-04-06T23:03:14.130Z,70.97
2018-04-06T23:05:42.404Z,64.73
2018-04-06T23:08:10.585Z,67.60
2018-04-06T23:10:38.755Z,69.83
2018-04-06T23:13:06.795Z,61.33
2018-04-06T23:15:35.175Z,57.53
2018-04-06T23:18:03.374Z,61.50
2018-04-06T23:20:31.754Z,62.63
2018-04-06T23:23:00.035Z,57.47
2018-04-06T23:25:28.820Z,77.10
2018-04-06T23:27:57.082Z,52.27
2018-04-06T23:30:25.178Z,54.20
2018-04-06T23:32:53.445Z,53.30
2018-04-06T23:35:21.715Z,59.70
2018-04-06T23:37:52.247Z,63.23
2018-04-06T23:40:20.691Z,56.07
2018-04-06T23:42:48.896Z,47.10
2018-04-06T23:45:16.970Z,50.47
2018-04-06T23:47:45.509Z,40.67
2018-04-06T23:50:13.420Z,50.57
2018-04-06T23:52:41.489Z,37.63
2018-04-06T23:55:09.462Z,47.53
2018-04-06T23:57:37.617Z,44.63
